Aérodrome :
LOGIN :

S'inscrire | Disclaimer

   EN    FR    IT 

 










Légende :    VFR   VFR Marginal   IFR   IFR Intensif   IFR Très Intensif
Visi : 
Plafond : 
>= 8 km
>= 3000ft
5 à 8 km
1000 à 3000 ft
1500m à 5 km
500 à 1000 ft
800 à 1500m
200 à 500 ft
< 800m
< 200 ft
Symboles :   Orages  Brouillard  Fortes neiges  Fortes précipitations  Vent > 20 kt
SIGMETs :   Divers  Orages  Givrage  Turbulence  Onde Orograph.  Cendres Volcan.






- Altitude de l'aérodrome : 1568 ft


ETSB - Büchel AB

DERNIER METAR :
  • 241422Z 11005KT 0100 R21/0900U FG VV000 03/03 Q1021 RED RED

METARs EXPIRÉS :
  • 241350Z 12006KT 0100 FG VV000 04/03 Q1022 RED YLO TEMPO RED
  • 241320Z 12004KT 0300 R21/0400N FG VV000 04/04 Q1022 RED YLO TEMPO RED
  • 241220Z 12005KT 0100 FG VV000 03/03 Q1023 RED YLO TEMPO RED

TAF TAF ETSB
Valide du 24 à 15h jusqu'au 25 à 00h UTC


241420Z 2415/2424 15005KT 0200 FG VV000 BY ETGL



MET'MAP, la Météo Aéronautique d'un coup d'oeil ! - Copyright ORBIFLY Décembre 2007 - Disclaimer

ORBIFLY MET'MAP TEAM :

Programmation & Développement : Alexandra Zaïnal
Sur une idée originale de : Baudouin d'Aumeries
Assistance à la programmation : Marc-Olivier Méhu
Soutien technique & logistique : Manuel Goepfert

Contact : metmap@orbifly.com




SOURCES & CREDITS :

   NOAA